sensor_id;sensor_type;location;lat;lon;timestamp;temperature;humidity
48206;DHT22;33995;48.202;16.260;2023-04-01T00:00:47;11.70;99.90
48206;DHT22;33995;48.202;16.260;2023-04-01T00:03:20;11.70;99.90
48206;DHT22;33995;48.202;16.260;2023-04-01T00:05:48;11.70;99.90
48206;DHT22;33995;48.202;16.260;2023-04-01T00:08:18;11.80;99.90
48206;DHT22;33995;48.202;16.260;2023-04-01T00:10:45;11.70;99.90
48206;DHT22;33995;48.202;16.260;2023-04-01T00:13:12;11.70;99.90
48206;DHT22;33995;48.202;16.260;2023-04-01T00:15:41;11.70;99.90
48206;DHT22;33995;48.202;16.260;2023-04-01T00:18:08;11.70;99.90
48206;DHT22;33995;48.202;16.260;2023-04-01T00:20:35;11.70;99.90
48206;DHT22;33995;48.202;16.260;2023-04-01T00:23:03;11.70;99.90
48206;DHT22;33995;48.202;16.260;2023-04-01T00:25:31;11.60;99.90
48206;DHT22;33995;48.202;16.260;2023-04-01T00:28:02;11.60;99.90
48206;DHT22;33995;48.202;16.260;2023-04-01T00:30:30;11.50;99.90
48206;DHT22;33995;48.202;16.260;2023-04-01T00:32:59;11.50;99.90
48206;DHT22;33995;48.202;16.260;2023-04-01T00:35:27;11.60;99.90
48206;DHT22;33995;48.202;16.260;2023-04-01T00:37:54;11.50;99.90
48206;DHT22;33995;48.202;16.260;2023-04-01T00:40:28;11.50;99.90
48206;DHT22;33995;48.202;16.260;2023-04-01T00:42:56;11.50;99.90
48206;DHT22;33995;48.202;16.260;2023-04-01T00:47:55;11.60;99.90
48206;DHT22;33995;48.202;16.260;2023-04-01T00:50:26;11.60;99.90
48206;DHT22;33995;48.202;16.260;2023-04-01T00:52:56;11.60;99.90
48206;DHT22;33995;48.202;16.260;2023-04-01T00:55:24;11.50;99.90
48206;DHT22;33995;48.202;16.260;2023-04-01T00:57:53;11.50;99.90
48206;DHT22;33995;48.202;16.260;2023-04-01T01:00:23;11.50;99.90
48206;DHT22;33995;48.202;16.260;2023-04-01T01:02:50;11.40;99.90
48206;DHT22;33995;48.202;16.260;2023-04-01T01:05:25;11.50;99.90
48206;DHT22;33995;48.202;16.260;2023-04-01T01:08:15;11.50;99.90
48206;DHT22;33995;48.202;16.260;2023-04-01T01:10:49;11.50;99.90
48206;DHT22;33995;48.202;16.260;2023-04-01T01:13:43;11.50;99.90
48206;DHT22;33995;48.202;16.260;2023-04-01T01:16:29;11.50;99.90
48206;DHT22;33995;48.202;16.260;2023-04-01T01:19:06;11.40;99.90
48206;DHT22;33995;48.202;16.260;2023-04-01T01:29:42;11.20;99.90
48206;DHT22;33995;48.202;16.260;2023-04-01T01:35:20;11.30;99.90
48206;DHT22;33995;48.202;16.260;2023-04-01T01:37:53;11.30;99.90
48206;DHT22;33995;48.202;16.260;2023-04-01T01:40:21;11.30;99.90
48206;DHT22;33995;48.202;16.260;2023-04-01T01:42:54;11.30;99.90
48206;DHT22;33995;48.202;16.260;2023-04-01T01:45:23;11.20;99.90
48206;DHT22;33995;48.202;16.260;2023-04-01T01:47:55;11.20;99.90
48206;DHT22;33995;48.202;16.260;2023-04-01T01:50:24;11.30;99.90
48206;DHT22;33995;48.202;16.260;2023-04-01T01:53:03;11.30;99.90
48206;DHT22;33995;48.202;16.260;2023-04-01T01:55:40;11.30;99.90
48206;DHT22;33995;48.202;16.260;2023-04-01T02:00:59;11.20;99.90
48206;DHT22;33995;48.202;16.260;2023-04-01T02:03:30;11.10;99.90
48206;DHT22;33995;48.202;16.260;2023-04-01T02:06:00;11.10;99.90
48206;DHT22;33995;48.202;16.260;2023-04-01T02:08:51;11.10;99.90
48206;DHT22;33995;48.202;16.260;2023-04-01T02:11:30;11.10;99.90
48206;DHT22;33995;48.202;16.260;2023-04-01T02:14:06;11.00;99.90
48206;DHT22;33995;48.202;16.260;2023-04-01T02:19:32;11.00;99.90
48206;DHT22;33995;48.202;16.260;2023-04-01T02:22:03;11.10;99.90
48206;DHT22;33995;48.202;16.260;2023-04-01T02:24:35;11.10;99.90
48206;DHT22;33995;48.202;16.260;2023-04-01T02:27:03;11.00;99.90
48206;DHT22;33995;48.202;16.260;2023-04-01T02:29:32;11.10;99.90
48206;DHT22;33995;48.202;16.260;2023-04-01T02:32:00;11.00;99.90
48206;DHT22;33995;48.202;16.260;2023-04-01T02:34:27;11.00;99.90
48206;DHT22;33995;48.202;16.260;2023-04-01T02:36:55;11.00;99.90
48206;DHT22;33995;48.202;16.260;2023-04-01T02:39:23;11.00;99.90
48206;DHT22;33995;48.202;16.260;2023-04-01T02:41:52;11.00;99.90
48206;DHT22;33995;48.202;16.260;2023-04-01T02:44:20;11.00;99.90
48206;DHT22;33995;48.202;16.260;2023-04-01T02:46:47;10.90;99.90
48206;DHT22;33995;48.202;16.260;2023-04-01T02:49:14;10.90;99.90
48206;DHT22;33995;48.202;16.260;2023-04-01T02:51:41;10.90;99.90
48206;DHT22;33995;48.202;16.260;2023-04-01T02:54:09;11.00;99.90
48206;DHT22;33995;48.202;16.260;2023-04-01T02:56:36;11.00;99.90
48206;DHT22;33995;48.202;16.260;2023-04-01T02:59:04;11.00;99.90
48206;DHT22;33995;48.202;16.260;2023-04-01T03:01:31;11.00;99.90
48206;DHT22;33995;48.202;16.260;2023-04-01T03:03:58;11.00;99.90
48206;DHT22;33995;48.202;16.260;2023-04-01T03:06:25;10.90;99.90
48206;DHT22;33995;48.202;16.260;2023-04-01T03:08:53;10.90;99.90
48206;DHT22;33995;48.202;16.260;2023-04-01T03:11:20;10.80;99.90
48206;DHT22;33995;48.202;16.260;2023-04-01T03:13:49;10.90;99.90
48206;DHT22;33995;48.202;16.260;2023-04-01T03:16:16;10.90;99.90
48206;DHT22;33995;48.202;16.260;2023-04-01T03:18:44;10.90;99.90
48206;DHT22;33995;48.202;16.260;2023-04-01T03:21:16;10.80;99.90
48206;DHT22;33995;48.202;16.260;2023-04-01T03:23:44;10.70;99.90
48206;DHT22;33995;48.202;16.260;2023-04-01T03:26:11;10.70;99.90
48206;DHT22;33995;48.202;16.260;2023-04-01T03:28:40;10.70;99.90
48206;DHT22;33995;48.202;16.260;2023-04-01T03:31:07;10.70;99.90
48206;DHT22;33995;48.202;16.260;2023-04-01T03:33:41;10.70;99.90
48206;DHT22;33995;48.202;16.260;2023-04-01T03:36:09;10.70;99.90
48206;DHT22;33995;48.202;16.260;2023-04-01T03:38:41;10.70;99.90
48206;DHT22;33995;48.202;16.260;2023-04-01T03:41:15;10.70;99.90
48206;DHT22;33995;48.202;16.260;2023-04-01T03:43:43;10.70;99.90
48206;DHT22;33995;48.202;16.260;2023-04-01T03:46:11;10.70;99.90
48206;DHT22;33995;48.202;16.260;2023-04-01T03:48:38;10.70;99.90
48206;DHT22;33995;48.202;16.260;2023-04-01T03:51:09;10.80;99.90
48206;DHT22;33995;48.202;16.260;2023-04-01T03:53:37;10.80;99.90
48206;DHT22;33995;48.202;16.260;2023-04-01T03:56:06;10.70;99.90
48206;DHT22;33995;48.202;16.260;2023-04-01T03:58:35;10.70;99.90
48206;DHT22;33995;48.202;16.260;2023-04-01T04:01:20;10.60;99.90
48206;DHT22;33995;48.202;16.260;2023-04-01T04:03:53;10.60;99.90
48206;DHT22;33995;48.202;16.260;2023-04-01T04:06:24;10.50;99.90
48206;DHT22;33995;48.202;16.260;2023-04-01T04:08:52;10.60;99.90
48206;DHT22;33995;48.202;16.260;2023-04-01T04:11:21;10.60;99.90
48206;DHT22;33995;48.202;16.260;2023-04-01T04:13:52;10.60;99.90
48206;DHT22;33995;48.202;16.260;2023-04-01T04:16:20;10.50;99.90
48206;DHT22;33995;48.202;16.260;2023-04-01T04:18:54;10.50;99.90
48206;DHT22;33995;48.202;16.260;2023-04-01T04:21:21;10.50;99.90
48206;DHT22;33995;48.202;16.260;2023-04-01T04:23:48;10.60;99.90
48206;DHT22;33995;48.202;16.260;2023-04-01T04:26:17;10.60;99.90
48206;DHT22;33995;48.202;16.260;2023-04-01T04:28:54;10.60;99.90
48206;DHT22;33995;48.202;16.260;2023-04-01T04:31:24;10.60;99.90
48206;DHT22;33995;48.202;16.260;2023-04-01T04:33:54;10.60;99.90
48206;DHT22;33995;48.202;16.260;2023-04-01T04:36:21;10.60;99.90
48206;DHT22;33995;48.202;16.260;2023-04-01T04:38:50;10.60;99.90
48206;DHT22;33995;48.202;16.260;2023-04-01T04:41:19;10.60;99.90
48206;DHT22;33995;48.202;16.260;2023-04-01T04:43:54;10.60;99.90
48206;DHT22;33995;48.202;16.260;2023-04-01T04:46:25;10.60;99.90
48206;DHT22;33995;48.202;16.260;2023-04-01T04:49:08;10.60;99.90
48206;DHT22;33995;48.202;16.260;2023-04-01T04:51:38;10.60;99.90
48206;DHT22;33995;48.202;16.260;2023-04-01T04:54:05;10.60;99.90
48206;DHT22;33995;48.202;16.260;2023-04-01T04:56:54;10.60;99.90
48206;DHT22;33995;48.202;16.260;2023-04-01T04:59:23;10.60;99.90
48206;DHT22;33995;48.202;16.260;2023-04-01T05:02:08;10.70;99.90
48206;DHT22;33995;48.202;16.260;2023-04-01T05:04:36;10.60;99.90
48206;DHT22;33995;48.202;16.260;2023-04-01T05:07:05;10.60;99.90
48206;DHT22;33995;48.202;16.260;2023-04-01T05:09:33;10.60;99.90
48206;DHT22;33995;48.202;16.260;2023-04-01T05:12:01;10.60;99.90
48206;DHT22;33995;48.202;16.260;2023-04-01T05:14:40;10.60;99.90
48206;DHT22;33995;48.202;16.260;2023-04-01T05:17:11;10.60;99.90
48206;DHT22;33995;48.202;16.260;2023-04-01T05:19:39;10.60;99.90
48206;DHT22;33995;48.202;16.260;2023-04-01T05:22:08;10.70;99.90
48206;DHT22;33995;48.202;16.260;2023-04-01T05:24:36;10.70;99.90
48206;DHT22;33995;48.202;16.260;2023-04-01T05:27:03;10.70;99.90
48206;DHT22;33995;48.202;16.260;2023-04-01T05:29:34;10.80;99.90
48206;DHT22;33995;48.202;16.260;2023-04-01T05:32:06;10.70;99.90
48206;DHT22;33995;48.202;16.260;2023-04-01T05:34:34;10.80;99.90
48206;DHT22;33995;48.202;16.260;2023-04-01T05:37:01;10.90;99.90
48206;DHT22;33995;48.202;16.260;2023-04-01T05:39:39;10.90;99.90
48206;DHT22;33995;48.202;16.260;2023-04-01T05:42:08;10.90;99.90
48206;DHT22;33995;48.202;16.260;2023-04-01T05:44:36;11.00;99.90
48206;DHT22;33995;48.202;16.260;2023-04-01T05:47:25;11.00;99.90
48206;DHT22;33995;48.202;16.260;2023-04-01T05:49:53;11.00;99.90
48206;DHT22;33995;48.202;16.260;2023-04-01T05:52:20;11.10;99.90
48206;DHT22;33995;48.202;16.260;2023-04-01T05:54:47;11.20;99.90
48206;DHT22;33995;48.202;16.260;2023-04-01T05:57:17;11.30;99.90
48206;DHT22;33995;48.202;16.260;2023-04-01T05:59:45;11.40;99.90
48206;DHT22;33995;48.202;16.260;2023-04-01T06:02:13;11.40;99.90
48206;DHT22;33995;48.202;16.260;2023-04-01T06:04:46;11.40;99.90
48206;DHT22;33995;48.202;16.260;2023-04-01T06:07:15;11.60;99.90
48206;DHT22;33995;48.202;16.260;2023-04-01T06:09:43;11.70;99.90
48206;DHT22;33995;48.202;16.260;2023-04-01T06:12:42;11.60;99.90
48206;DHT22;33995;48.202;16.260;2023-04-01T06:21:12;11.80;99.90
48206;DHT22;33995;48.202;16.260;2023-04-01T06:29:39;11.90;99.90
48206;DHT22;33995;48.202;16.260;2023-04-01T06:49:55;12.30;99.90
48206;DHT22;33995;48.202;16.260;2023-04-01T06:52:59;12.40;99.90
48206;DHT22;33995;48.202;16.260;2023-04-01T06:55:56;12.50;99.90
48206;DHT22;33995;48.202;16.260;2023-04-01T06:58:53;12.70;99.90
48206;DHT22;33995;48.202;16.260;2023-04-01T07:04:23;12.60;99.90
48206;DHT22;33995;48.202;16.260;2023-04-01T07:06:58;12.70;99.90
48206;DHT22;33995;48.202;16.260;2023-04-01T07:09:32;12.80;99.90
48206;DHT22;33995;48.202;16.260;2023-04-01T07:12:58;12.80;99.90
48206;DHT22;33995;48.202;16.260;2023-04-01T07:16:06;13.00;99.90
48206;DHT22;33995;48.202;16.260;2023-04-01T07:18:50;13.10;99.90
48206;DHT22;33995;48.202;16.260;2023-04-01T07:21:31;13.20;99.90
48206;DHT22;33995;48.202;16.260;2023-04-01T07:24:21;13.10;99.90
48206;DHT22;33995;48.202;16.260;2023-04-01T07:27:00;13.00;99.90
48206;DHT22;33995;48.202;16.260;2023-04-01T07:29:30;13.00;99.90
48206;DHT22;33995;48.202;16.260;2023-04-01T07:32:27;13.00;99.90
48206;DHT22;33995;48.202;16.260;2023-04-01T07:48:09;13.50;99.90
48206;DHT22;33995;48.202;16.260;2023-04-01T07:50:58;13.60;99.90
48206;DHT22;33995;48.202;16.260;2023-04-01T07:53:40;13.60;99.90
48206;DHT22;33995;48.202;16.260;2023-04-01T08:04:55;13.90;99.90
48206;DHT22;33995;48.202;16.260;2023-04-01T08:10:52;14.10;99.90
48206;DHT22;33995;48.202;16.260;2023-04-01T08:17:06;14.20;99.90
48206;DHT22;33995;48.202;16.260;2023-04-01T08:19:56;14.10;99.90
48206;DHT22;33995;48.202;16.260;2023-04-01T08:22:40;14.10;99.90
48206;DHT22;33995;48.202;16.260;2023-04-01T08:25:24;14.10;99.90
48206;DHT22;33995;48.202;16.260;2023-04-01T08:27:58;14.20;99.90
48206;DHT22;33995;48.202;16.260;2023-04-01T08:33:09;14.20;99.90
48206;DHT22;33995;48.202;16.260;2023-04-01T08:36:19;14.30;99.90
48206;DHT22;33995;48.202;16.260;2023-04-01T08:39:51;14.30;99.90
48206;DHT22;33995;48.202;16.260;2023-04-01T08:53:38;14.40;99.90
48206;DHT22;33995;48.202;16.260;2023-04-01T09:11:13;15.00;99.90
48206;DHT22;33995;48.202;16.260;2023-04-01T09:14:31;14.80;99.90
48206;DHT22;33995;48.202;16.260;2023-04-01T09:26:13;14.70;99.90
48206;DHT22;33995;48.202;16.260;2023-04-01T09:49:29;15.00;99.90
48206;DHT22;33995;48.202;16.260;2023-04-01T10:17:08;15.60;98.70
48206;DHT22;33995;48.202;16.260;2023-04-01T10:28:44;14.70;99.50
48206;DHT22;33995;48.202;16.260;2023-04-01T10:43:58;14.70;99.90
48206;DHT22;33995;48.202;16.260;2023-04-01T11:24:05;15.80;97.90
48206;DHT22;33995;48.202;16.260;2023-04-01T11:30:25;16.20;97.80
48206;DHT22;33995;48.202;16.260;2023-04-01T11:33:05;16.10;97.10
48206;DHT22;33995;48.202;16.260;2023-04-01T11:36:32;16.00;96.80
48206;DHT22;33995;48.202;16.260;2023-04-01T11:42:10;15.90;96.90
48206;DHT22;33995;48.202;16.260;2023-04-01T11:45:06;15.70;97.00
48206;DHT22;33995;48.202;16.260;2023-04-01T11:50:21;15.70;96.70
48206;DHT22;33995;48.202;16.260;2023-04-01T12:02:01;16.30;96.30
48206;DHT22;33995;48.202;16.260;2023-04-01T12:10:10;17.50;95.90
48206;DHT22;33995;48.202;16.260;2023-04-01T12:18:17;16.30;95.30
48206;DHT22;33995;48.202;16.260;2023-04-01T12:21:17;16.60;95.80
48206;DHT22;33995;48.202;16.260;2023-04-01T12:35:22;17.00;95.50
48206;DHT22;33995;48.202;16.260;2023-04-01T12:38:43;17.00;95.30
48206;DHT22;33995;48.202;16.260;2023-04-01T12:41:14;16.80;95.00
48206;DHT22;33995;48.202;16.260;2023-04-01T12:55:06;17.30;95.00
48206;DHT22;33995;48.202;16.260;2023-04-01T12:57:49;17.40;94.90
48206;DHT22;33995;48.202;16.260;2023-04-01T13:09:47;18.00;93.50
48206;DHT22;33995;48.202;16.260;2023-04-01T13:16:04;18.10;93.30
48206;DHT22;33995;48.202;16.260;2023-04-01T13:19:07;18.30;93.20
48206;DHT22;33995;48.202;16.260;2023-04-01T13:24:51;18.20;93.20
48206;DHT22;33995;48.202;16.260;2023-04-01T13:27:30;18.00;92.60
48206;DHT22;33995;48.202;16.260;2023-04-01T13:30:30;17.80;92.90
48206;DHT22;33995;48.202;16.260;2023-04-01T13:36:51;17.50;93.00
48206;DHT22;33995;48.202;16.260;2023-04-01T13:39:53;17.80;93.00
48206;DHT22;33995;48.202;16.260;2023-04-01T13:44:54;17.90;92.10
48206;DHT22;33995;48.202;16.260;2023-04-01T14:01:51;18.10;91.90
48206;DHT22;33995;48.202;16.260;2023-04-01T14:10:35;17.30;91.90
48206;DHT22;33995;48.202;16.260;2023-04-01T14:15:48;17.10;92.50
48206;DHT22;33995;48.202;16.260;2023-04-01T14:27:11;19.10;91.10
48206;DHT22;33995;48.202;16.260;2023-04-01T14:30:09;19.30;90.00
48206;DHT22;33995;48.202;16.260;2023-04-01T14:33:31;18.80;86.70
48206;DHT22;33995;48.202;16.260;2023-04-01T14:47:41;17.70;89.00
48206;DHT22;33995;48.202;16.260;2023-04-01T14:52:54;17.90;87.80
48206;DHT22;33995;48.202;16.260;2023-04-01T14:55:33;17.30;88.40
48206;DHT22;33995;48.202;16.260;2023-04-01T14:58:17;17.30;88.50
48206;DHT22;33995;48.202;16.260;2023-04-01T15:00:57;17.20;88.90
48206;DHT22;33995;48.202;16.260;2023-04-01T15:07:02;17.40;89.50
48206;DHT22;33995;48.202;16.260;2023-04-01T15:12:29;17.50;89.60
48206;DHT22;33995;48.202;16.260;2023-04-01T15:18:03;17.50;90.00
48206;DHT22;33995;48.202;16.260;2023-04-01T15:32:01;17.00;92.20
48206;DHT22;33995;48.202;16.260;2023-04-01T15:37:32;16.70;93.00
48206;DHT22;33995;48.202;16.260;2023-04-01T15:45:45;16.20;94.00
48206;DHT22;33995;48.202;16.260;2023-04-01T15:48:41;16.20;94.30
48206;DHT22;33995;48.202;16.260;2023-04-01T15:56:53;15.60;95.80
48206;DHT22;33995;48.202;16.260;2023-04-01T15:59:47;15.70;96.40
48206;DHT22;33995;48.202;16.260;2023-04-01T16:02:45;15.80;95.90
48206;DHT22;33995;48.202;16.260;2023-04-01T16:05:47;15.80;96.00
48206;DHT22;33995;48.202;16.260;2023-04-01T16:21:48;15.30;96.70
48206;DHT22;33995;48.202;16.260;2023-04-01T16:24:45;15.10;97.10
48206;DHT22;33995;48.202;16.260;2023-04-01T16:30:55;15.20;97.50
48206;DHT22;33995;48.202;16.260;2023-04-01T16:33:34;15.00;97.80
48206;DHT22;33995;48.202;16.260;2023-04-01T16:36:28;15.10;97.90
48206;DHT22;33995;48.202;16.260;2023-04-01T16:41:47;15.10;98.10
48206;DHT22;33995;48.202;16.260;2023-04-01T16:44:24;15.00;98.40
48206;DHT22;33995;48.202;16.260;2023-04-01T16:46:56;14.90;98.90
48206;DHT22;33995;48.202;16.260;2023-04-01T16:49:32;14.70;99.30
48206;DHT22;33995;48.202;16.260;2023-04-01T17:00:58;14.40;99.00
48206;DHT22;33995;48.202;16.260;2023-04-01T17:03:25;14.10;99.50
48206;DHT22;33995;48.202;16.260;2023-04-01T17:12:00;13.90;99.90
48206;DHT22;33995;48.202;16.260;2023-04-01T17:17:34;13.60;99.90
48206;DHT22;33995;48.202;16.260;2023-04-01T17:20:29;13.60;99.90
48206;DHT22;33995;48.202;16.260;2023-04-01T17:26:35;13.60;99.90
48206;DHT22;33995;48.202;16.260;2023-04-01T17:32:11;13.30;99.90
48206;DHT22;33995;48.202;16.260;2023-04-01T17:34:45;13.30;99.90
48206;DHT22;33995;48.202;16.260;2023-04-01T17:40:20;13.00;99.90
48206;DHT22;33995;48.202;16.260;2023-04-01T17:43:12;13.00;99.90
48206;DHT22;33995;48.202;16.260;2023-04-01T17:45:56;12.90;99.90
48206;DHT22;33995;48.202;16.260;2023-04-01T17:48:50;12.80;99.90
48206;DHT22;33995;48.202;16.260;2023-04-01T17:51:30;12.90;99.90
48206;DHT22;33995;48.202;16.260;2023-04-01T17:57:10;12.80;99.90
48206;DHT22;33995;48.202;16.260;2023-04-01T18:03:11;12.60;99.90
48206;DHT22;33995;48.202;16.260;2023-04-01T18:15:21;12.50;99.90
48206;DHT22;33995;48.202;16.260;2023-04-01T18:23:58;12.50;99.90
48206;DHT22;33995;48.202;16.260;2023-04-01T18:26:33;12.40;99.90
48206;DHT22;33995;48.202;16.260;2023-04-01T18:31:45;12.30;99.90
48206;DHT22;33995;48.202;16.260;2023-04-01T18:37:19;12.20;99.90
48206;DHT22;33995;48.202;16.260;2023-04-01T18:40:43;12.20;99.90
48206;DHT22;33995;48.202;16.260;2023-04-01T18:45:51;12.20;99.90
48206;DHT22;33995;48.202;16.260;2023-04-01T18:48:52;12.20;99.90
48206;DHT22;33995;48.202;16.260;2023-04-01T18:51:41;12.20;99.90
48206;DHT22;33995;48.202;16.260;2023-04-01T18:57:15;12.00;99.90
48206;DHT22;33995;48.202;16.260;2023-04-01T19:00:05;12.00;99.90
48206;DHT22;33995;48.202;16.260;2023-04-01T19:02:42;12.00;99.90
48206;DHT22;33995;48.202;16.260;2023-04-01T19:05:19;12.00;99.90
48206;DHT22;33995;48.202;16.260;2023-04-01T19:07:53;11.90;99.90
48206;DHT22;33995;48.202;16.260;2023-04-01T19:13:23;11.80;99.90
48206;DHT22;33995;48.202;16.260;2023-04-01T19:21:26;11.60;99.90
48206;DHT22;33995;48.202;16.260;2023-04-01T19:24:24;11.70;99.90
48206;DHT22;33995;48.202;16.260;2023-04-01T19:32:42;11.60;99.90
48206;DHT22;33995;48.202;16.260;2023-04-01T19:56:18;11.30;99.90
48206;DHT22;33995;48.202;16.260;2023-04-01T20:01:51;11.40;99.90
48206;DHT22;33995;48.202;16.260;2023-04-01T20:04:29;11.40;99.90
48206;DHT22;33995;48.202;16.260;2023-04-01T20:15:37;11.50;99.90
48206;DHT22;33995;48.202;16.260;2023-04-01T20:21:30;11.40;99.90
48206;DHT22;33995;48.202;16.260;2023-04-01T20:24:04;11.40;99.90
48206;DHT22;33995;48.202;16.260;2023-04-01T20:26:38;11.40;99.90
48206;DHT22;33995;48.202;16.260;2023-04-01T20:34:41;11.40;99.90
48206;DHT22;33995;48.202;16.260;2023-04-01T20:45:34;11.40;99.90
48206;DHT22;33995;48.202;16.260;2023-04-01T20:51:03;11.50;99.90
48206;DHT22;33995;48.202;16.260;2023-04-01T21:05:22;11.40;99.90
48206;DHT22;33995;48.202;16.260;2023-04-01T21:16:17;11.20;99.90
48206;DHT22;33995;48.202;16.260;2023-04-01T21:33:12;11.40;99.90
48206;DHT22;33995;48.202;16.260;2023-04-01T21:49:09;11.20;99.90
48206;DHT22;33995;48.202;16.260;2023-04-01T21:57:38;11.10;99.90
48206;DHT22;33995;48.202;16.260;2023-04-01T22:05:58;11.10;99.90
48206;DHT22;33995;48.202;16.260;2023-04-01T22:11:31;11.10;99.90
48206;DHT22;33995;48.202;16.260;2023-04-01T22:27:49;11.30;99.90
48206;DHT22;33995;48.202;16.260;2023-04-01T22:33:05;11.40;99.90
48206;DHT22;33995;48.202;16.260;2023-04-01T22:35:52;11.30;99.90
48206;DHT22;33995;48.202;16.260;2023-04-01T22:43:44;11.40;99.90
48206;DHT22;33995;48.202;16.260;2023-04-01T22:46:42;11.50;99.90
48206;DHT22;33995;48.202;16.260;2023-04-01T22:49:24;11.40;99.90
48206;DHT22;33995;48.202;16.260;2023-04-01T22:54:58;11.30;99.90
48206;DHT22;33995;48.202;16.260;2023-04-01T23:00:39;11.50;99.90
48206;DHT22;33995;48.202;16.260;2023-04-01T23:05:54;11.50;99.90
48206;DHT22;33995;48.202;16.260;2023-04-01T23:14:27;11.70;99.90
48206;DHT22;33995;48.202;16.260;2023-04-01T23:19:37;11.50;99.90
48206;DHT22;33995;48.202;16.260;2023-04-01T23:22:43;11.40;99.90
48206;DHT22;33995;48.202;16.260;2023-04-01T23:28:17;11.40;99.90
48206;DHT22;33995;48.202;16.260;2023-04-01T23:30:48;11.40;99.90
48206;DHT22;33995;48.202;16.260;2023-04-01T23:38:17;11.40;99.90
48206;DHT22;33995;48.202;16.260;2023-04-01T23:40:47;11.40;99.90
48206;DHT22;33995;48.202;16.260;2023-04-01T23:43:26;11.40;99.90
48206;DHT22;33995;48.202;16.260;2023-04-01T23:45:55;11.30;99.90
48206;DHT22;33995;48.202;16.260;2023-04-01T23:51:01;11.20;99.90
48206;DHT22;33995;48.202;16.260;2023-04-01T23:53:32;11.20;99.90
48206;DHT22;33995;48.202;16.260;2023-04-01T23:56:02;11.30;99.90
48206;DHT22;33995;48.202;16.260;2023-04-01T23:58:44;11.30;99.90
